createdAt,value
2018-03-27T00:00:24.073Z,17.27
2018-03-27T00:01:13.261Z,15.32
2018-03-27T00:02:02.330Z,15.10
2018-03-27T00:02:51.413Z,15.18
2018-03-27T00:03:40.481Z,15.07
2018-03-27T00:04:29.545Z,16.67
2018-03-27T00:05:18.676Z,17.30
2018-03-27T00:06:07.769Z,16.60
2018-03-27T00:06:56.966Z,16.73
2018-03-27T00:07:46.060Z,16.92
2018-03-27T00:08:35.113Z,14.65
2018-03-27T00:09:24.178Z,12.63
2018-03-27T00:10:13.240Z,14.18
2018-03-27T00:11:02.354Z,14.05
2018-03-27T00:11:51.454Z,13.40
2018-03-27T00:12:40.537Z,13.73
2018-03-27T00:13:29.643Z,13.55
2018-03-27T00:14:18.931Z,14.18
2018-03-27T00:15:07.996Z,13.82
2018-03-27T00:15:57.061Z,12.05
2018-03-27T00:16:49.366Z,12.35
2018-03-27T00:17:38.425Z,12.45
2018-03-27T00:18:27.511Z,13.98
2018-03-27T00:19:16.573Z,12.37
2018-03-27T00:20:05.686Z,11.43
2018-03-27T00:20:54.754Z,10.38
2018-03-27T00:21:43.819Z,10.52
2018-03-27T00:22:32.925Z,12.55
2018-03-27T00:23:21.990Z,13.18
2018-03-27T00:24:11.047Z,12.07
2018-03-27T00:25:00.371Z,12.40
2018-03-27T00:25:49.479Z,15.30
2018-03-27T03:00:55.150Z,7.78
2018-03-27T03:01:44.568Z,10.40
2018-03-27T03:02:33.624Z,15.25
2018-03-27T03:03:22.693Z,19.92
2018-03-27T03:04:11.797Z,13.65
2018-03-27T03:05:00.872Z,8.73
2018-03-27T03:05:49.933Z,8.10
2018-03-27T03:06:39.114Z,8.27
2018-03-27T03:07:28.221Z,7.35
2018-03-27T03:08:17.274Z,8.30
2018-03-27T03:09:06.339Z,7.72
2018-03-27T03:09:55.424Z,8.18
2018-03-27T03:10:44.521Z,7.55
2018-03-27T03:11:33.574Z,7.70
2018-03-27T03:12:22.673Z,8.07
2018-03-27T03:13:11.717Z,7.20
2018-03-27T03:14:00.845Z,7.47
2018-03-27T03:14:49.891Z,6.97
2018-03-27T03:15:38.987Z,7.60
2018-03-27T03:16:28.052Z,7.12
2018-03-27T03:17:17.106Z,7.35
2018-03-27T03:18:06.266Z,7.20
2018-03-27T03:18:55.378Z,7.45
2018-03-27T03:19:44.462Z,7.40
2018-03-27T03:20:33.520Z,6.37
2018-03-27T03:21:22.562Z,7.28
2018-03-27T03:22:11.649Z,7.85
2018-03-27T03:23:00.699Z,7.78
2018-03-27T03:23:51.002Z,7.00
2018-03-27T03:24:40.054Z,7.40
2018-03-27T03:25:29.102Z,7.40
2018-03-27T03:26:18.148Z,7.97
2018-03-27T03:27:07.199Z,8.23
2018-03-27T03:27:56.258Z,10.32
2018-03-27T03:28:45.374Z,15.25
2018-03-27T03:29:34.433Z,13.65
2018-03-27T03:30:23.509Z,11.23
2018-03-27T03:31:12.598Z,11.52
2018-03-27T03:32:01.668Z,12.50
2018-03-27T03:32:50.727Z,13.05
2018-03-27T03:33:39.779Z,12.43
2018-03-27T03:34:28.894Z,13.48
2018-03-27T03:35:17.948Z,12.73
2018-03-27T03:36:07.018Z,12.10
2018-03-27T03:36:56.072Z,12.23
2018-03-27T03:37:45.137Z,12.43
2018-03-27T03:38:34.302Z,13.15
2018-03-27T03:39:23.356Z,15.30
2018-03-27T03:40:12.444Z,17.58
2018-03-27T03:41:01.506Z,16.25
2018-03-27T03:41:50.578Z,15.57
2018-03-27T03:42:39.642Z,18.05
2018-03-27T03:43:28.694Z,16.80
2018-03-27T03:44:17.860Z,16.27
2018-03-27T03:45:06.926Z,27.05
2018-03-27T03:45:55.994Z,13.57
2018-03-27T03:46:45.065Z,25.25
2018-03-27T03:47:34.360Z,11.40
2018-03-27T03:48:23.452Z,10.85
2018-03-27T03:49:12.510Z,12.18
2018-03-27T03:50:01.573Z,33.35
2018-03-27T03:50:50.628Z,14.02
2018-03-27T03:51:39.699Z,15.25
2018-03-27T03:52:28.764Z,25.02
2018-03-27T03:53:17.816Z,21.67
2018-03-27T03:54:06.929Z,12.98
2018-03-27T03:54:55.994Z,16.62
2018-03-27T03:55:45.061Z,13.50
2018-03-27T03:56:34.128Z,13.93
2018-03-27T03:57:23.190Z,12.43
2018-03-27T03:58:12.252Z,12.15
2018-03-27T03:59:01.409Z,12.60
2018-03-27T03:59:50.472Z,13.05
2018-03-27T04:00:39.538Z,13.45
2018-03-27T04:01:28.643Z,15.52
2018-03-27T04:02:17.707Z,17.45
2018-03-27T04:03:06.761Z,18.25
2018-03-27T04:03:55.828Z,13.30
2018-03-27T04:04:45.008Z,13.45
2018-03-27T04:05:34.081Z,16.10
2018-03-27T04:06:23.144Z,16.73
2018-03-27T04:07:12.200Z,14.93
2018-03-27T04:08:01.284Z,13.90
2018-03-27T04:08:50.339Z,15.40
2018-03-27T04:09:39.445Z,14.65
2018-03-27T04:10:28.505Z,19.95
2018-03-27T04:11:17.612Z,14.27
2018-03-27T04:12:09.137Z,16.55
2018-03-27T04:12:58.344Z,18.25
2018-03-27T04:13:47.425Z,23.67
2018-03-27T04:14:36.696Z,30.27
2018-03-27T04:15:25.791Z,26.30
2018-03-27T04:16:14.857Z,27.73
2018-03-27T04:17:04.019Z,29.70
2018-03-27T04:17:53.070Z,33.63
2018-03-27T04:18:42.133Z,36.40
2018-03-27T04:19:31.212Z,43.33
2018-03-27T04:20:20.271Z,43.38
2018-03-27T04:21:09.328Z,45.47
2018-03-27T04:21:58.392Z,42.88
2018-03-27T04:22:47.498Z,41.55
2018-03-27T04:23:36.565Z,41.37
2018-03-27T04:24:25.626Z,40.17
2018-03-27T04:25:14.688Z,40.70
2018-03-27T04:26:03.794Z,37.85
2018-03-27T04:26:52.839Z,36.55
2018-03-27T04:27:41.895Z,36.20
2018-03-27T04:28:31.048Z,34.88
2018-03-27T04:29:20.107Z,34.45
2018-03-27T04:30:09.165Z,32.58
2018-03-27T04:30:58.227Z,27.52
2018-03-27T04:31:47.291Z,24.60
2018-03-27T04:32:36.366Z,25.52
2018-03-27T04:33:25.485Z,27.37
2018-03-27T04:34:14.535Z,25.80
2018-03-27T04:35:03.609Z,27.00
2018-03-27T04:35:52.767Z,28.38
2018-03-27T04:36:44.449Z,28.55
2018-03-27T04:37:33.512Z,26.35
2018-03-27T04:38:22.578Z,26.52
2018-03-27T04:39:11.638Z,26.27
2018-03-27T04:40:00.711Z,26.60
2018-03-27T04:40:49.765Z,25.45
2018-03-27T04:41:38.892Z,23.67
2018-03-27T04:42:27.947Z,23.17
2018-03-27T04:43:16.998Z,23.62
2018-03-27T04:44:06.051Z,21.15
2018-03-27T04:44:55.121Z,22.30
2018-03-27T04:45:44.182Z,22.15
2018-03-27T04:46:33.258Z,19.62
2018-03-27T04:47:22.537Z,23.70
2018-03-27T04:48:11.605Z,21.45
2018-03-27T04:49:00.661Z,21.02
2018-03-27T04:49:50.065Z,20.95
2018-03-27T04:50:39.132Z,22.27
2018-03-27T04:51:28.194Z,29.15
2018-03-27T04:52:17.254Z,44.58
2018-03-27T04:53:06.406Z,34.50
2018-03-27T04:53:55.465Z,38.05
2018-03-27T04:54:44.517Z,28.17
2018-03-27T04:55:33.571Z,32.47
2018-03-27T04:56:22.633Z,28.15
2018-03-27T04:57:11.692Z,40.15
2018-03-27T04:58:00.753Z,45.95
2018-03-27T04:58:49.869Z,47.30
2018-03-27T04:59:38.928Z,49.20
2018-03-27T05:00:27.996Z,52.53
2018-03-27T05:01:17.058Z,74.32
2018-03-27T05:02:06.173Z,48.53
2018-03-27T05:02:55.272Z,62.38
2018-03-27T05:03:44.329Z,53.22
2018-03-27T05:04:33.394Z,49.65
2018-03-27T05:05:22.491Z,55.05
2018-03-27T05:06:11.553Z,51.83
2018-03-27T05:07:00.611Z,62.30
2018-03-27T05:07:49.672Z,54.83
2018-03-27T05:08:38.838Z,54.15
2018-03-27T05:09:27.897Z,54.20
2018-03-27T05:10:16.986Z,48.78
2018-03-27T05:11:06.060Z,45.65
2018-03-27T05:11:55.118Z,42.90
2018-03-27T05:12:44.179Z,53.13
2018-03-27T05:13:33.242Z,44.83
2018-03-27T05:14:22.412Z,46.35
2018-03-27T05:15:11.473Z,46.35
2018-03-27T05:16:00.557Z,54.35
2018-03-27T05:16:49.614Z,91.37
2018-03-27T05:17:38.684Z,64.57
2018-03-27T05:18:27.761Z,83.18
2018-03-27T05:19:16.822Z,59.33
2018-03-27T05:20:05.956Z,61.97
2018-03-27T05:20:55.021Z,62.58
2018-03-27T05:21:44.095Z,63.33
2018-03-27T05:22:33.173Z,69.22
2018-03-27T05:23:22.235Z,70.62
2018-03-27T05:24:11.310Z,69.65
2018-03-27T05:25:00.416Z,64.53
2018-03-27T05:25:49.525Z,68.80
2018-03-27T05:26:38.581Z,66.47
2018-03-27T05:27:27.651Z,63.08
2018-03-27T05:28:16.804Z,57.50
2018-03-27T05:29:06.197Z,57.67
2018-03-27T05:29:55.254Z,55.40
2018-03-27T05:30:44.358Z,51.22
2018-03-27T05:31:33.418Z,45.90
2018-03-27T05:32:22.485Z,43.17
2018-03-27T05:33:11.531Z,41.65
2018-03-27T05:34:00.649Z,35.15
2018-03-27T05:34:49.700Z,27.73
2018-03-27T05:35:38.748Z,34.70
2018-03-27T05:36:27.811Z,32.47
2018-03-27T05:37:16.884Z,29.67
2018-03-27T05:38:05.940Z,29.05
2018-03-27T05:38:55.025Z,27.55
2018-03-27T05:39:44.198Z,22.25
2018-03-27T05:40:33.263Z,22.85
2018-03-27T05:41:22.570Z,25.70
2018-03-27T05:42:11.629Z,27.87
2018-03-27T05:43:00.696Z,32.15
2018-03-27T05:43:49.752Z,32.55
2018-03-27T05:44:38.808Z,31.65
2018-03-27T05:45:27.925Z,32.17
2018-03-27T05:46:16.976Z,29.90
2018-03-27T05:47:06.097Z,35.85
2018-03-27T05:47:55.152Z,30.48
2018-03-27T05:48:44.208Z,31.25
2018-03-27T05:49:33.266Z,28.62
2018-03-27T05:50:22.339Z,28.52
2018-03-27T05:51:11.397Z,27.75
2018-03-27T05:52:00.554Z,26.20
2018-03-27T05:52:49.609Z,24.92
2018-03-27T05:53:38.669Z,24.98
2018-03-27T05:54:27.773Z,25.37
2018-03-27T05:55:16.833Z,24.58
2018-03-27T05:56:05.959Z,25.60
2018-03-27T05:56:55.025Z,25.62
2018-03-27T05:57:44.124Z,24.37
2018-03-27T05:58:33.183Z,29.00
2018-03-27T05:59:22.250Z,32.45
2018-03-27T06:00:11.365Z,31.33
2018-03-27T06:01:00.440Z,33.58
2018-03-27T06:01:49.503Z,31.02
2018-03-27T06:02:38.571Z,32.22
2018-03-27T06:03:27.748Z,32.92
2018-03-27T06:04:16.815Z,34.35
2018-03-27T06:05:05.894Z,43.17
2018-03-27T06:05:55.016Z,34.85
2018-03-27T06:06:44.076Z,39.25
2018-03-27T06:07:33.393Z,40.45
2018-03-27T06:08:22.460Z,43.30
2018-03-27T06:09:11.512Z,60.25
2018-03-27T06:10:00.590Z,69.53
2018-03-27T06:10:49.649Z,61.78
2018-03-27T06:11:38.710Z,64.82
2018-03-27T06:12:27.764Z,61.65
2018-03-27T06:13:16.877Z,57.25
2018-03-27T06:14:05.985Z,53.05
2018-03-27T06:14:55.038Z,47.80
2018-03-27T06:15:44.096Z,42.78
2018-03-27T06:16:33.176Z,41.00
2018-03-27T06:17:22.250Z,44.00
2018-03-27T06:18:11.329Z,41.70
2018-03-27T06:19:00.506Z,40.47
2018-03-27T06:19:49.610Z,41.58
2018-03-27T06:20:38.677Z,43.33
2018-03-27T06:21:27.744Z,45.72
2018-03-27T06:22:16.802Z,44.22
2018-03-27T06:23:05.978Z,43.33
2018-03-27T06:23:55.034Z,44.10
2018-03-27T06:24:44.109Z,44.33
2018-03-27T06:25:33.171Z,47.83
2018-03-27T06:26:22.234Z,51.50
2018-03-27T06:27:11.288Z,54.83
2018-03-27T06:28:00.354Z,46.28
2018-03-27T06:28:49.476Z,48.72
2018-03-27T06:29:38.538Z,55.08
2018-03-27T06:30:27.646Z,53.95
2018-03-27T06:31:16.708Z,42.90
2018-03-27T06:32:05.763Z,41.05
2018-03-27T06:32:54.842Z,39.83
2018-03-27T06:33:43.925Z,47.70
2018-03-27T06:34:33.306Z,69.43
2018-03-27T06:35:22.377Z,76.72
2018-03-27T06:36:11.447Z,75.37
2018-03-27T06:37:00.522Z,58.60
2018-03-27T06:37:49.646Z,50.50
2018-03-27T06:38:38.993Z,33.08
2018-03-27T06:39:28.048Z,37.38
2018-03-27T06:40:17.172Z,39.40
2018-03-27T06:41:06.232Z,35.40
2018-03-27T06:41:55.293Z,29.98
2018-03-27T06:42:44.362Z,26.08
2018-03-27T06:43:33.418Z,25.40
2018-03-27T06:44:22.486Z,25.92
2018-03-27T06:45:11.565Z,24.77
2018-03-27T06:46:00.711Z,23.92
2018-03-27T06:46:49.773Z,24.95
2018-03-27T06:47:38.855Z,19.58
2018-03-27T06:48:27.919Z,21.10
2018-03-27T06:49:16.990Z,20.80
2018-03-27T06:50:06.053Z,20.23
2018-03-27T06:50:55.321Z,19.95
2018-03-27T06:51:44.493Z,18.83
2018-03-27T06:52:33.549Z,16.12
2018-03-27T06:53:22.606Z,17.40
2018-03-27T06:54:11.673Z,15.88
2018-03-27T06:55:00.932Z,12.55
2018-03-27T06:55:50.066Z,17.95
2018-03-27T06:56:39.137Z,17.90
2018-03-27T06:57:28.208Z,15.73
2018-03-27T06:58:17.255Z,15.25
2018-03-27T06:59:06.444Z,12.88
2018-03-27T06:59:55.692Z,11.88
2018-03-27T07:00:44.769Z,10.30
2018-03-27T07:01:33.853Z,11.43
2018-03-27T07:02:22.934Z,9.55
2018-03-27T07:03:15.329Z,8.10
2018-03-27T07:04:04.392Z,9.60
2018-03-27T07:04:53.572Z,10.13
2018-03-27T07:05:42.664Z,13.80
2018-03-27T07:06:31.730Z,19.65
2018-03-27T07:07:20.910Z,15.23
2018-03-27T07:08:10.067Z,14.15
2018-03-27T07:08:59.134Z,22.23
2018-03-27T07:09:48.197Z,13.70
2018-03-27T07:10:37.272Z,17.10
2018-03-27T07:11:26.342Z,16.27
2018-03-27T07:12:15.445Z,16.98
2018-03-27T07:13:04.744Z,14.57
2018-03-27T07:13:53.987Z,15.02
2018-03-27T07:14:43.281Z,25.10
2018-03-27T07:15:32.337Z,34.17
2018-03-27T07:16:21.399Z,26.65
2018-03-27T07:17:10.527Z,40.20
2018-03-27T07:30:22.874Z,13.75
2018-03-27T07:31:12.060Z,26.87
2018-03-27T07:32:01.182Z,13.77
2018-03-27T07:32:50.289Z,11.60
2018-03-27T07:33:39.366Z,14.82
2018-03-27T07:34:28.501Z,13.93
2018-03-27T07:35:17.619Z,10.68
2018-03-27T07:36:06.770Z,10.50
2018-03-27T07:36:55.896Z,11.40
2018-03-27T07:37:45.015Z,12.73
2018-03-27T07:38:34.110Z,16.62
2018-03-27T07:39:23.210Z,11.88
2018-03-27T07:40:12.365Z,8.85
2018-03-27T07:41:01.466Z,28.62
2018-03-27T07:41:50.617Z,15.18
2018-03-27T07:42:39.703Z,25.75
2018-03-27T07:43:28.791Z,14.68
2018-03-27T07:44:17.887Z,12.90
2018-03-27T07:45:06.996Z,12.13
2018-03-27T07:45:56.130Z,122.55
2018-03-27T07:46:45.239Z,264.27
2018-03-27T07:47:34.440Z,23.70
2018-03-27T07:48:23.661Z,14.70
2018-03-27T07:49:12.838Z,18.10
2018-03-27T07:50:01.959Z,38.00
2018-03-27T07:50:51.263Z,36.33
2018-03-27T07:51:40.403Z,39.50
2018-03-27T07:52:29.501Z,30.37
2018-03-27T07:53:18.611Z,15.00
2018-03-27T07:54:07.702Z,11.63
2018-03-27T07:54:56.907Z,10.43
2018-03-27T07:55:46.000Z,10.20
2018-03-27T07:56:35.095Z,14.65
2018-03-27T07:57:24.214Z,12.95
2018-03-27T07:58:13.347Z,11.20
2018-03-27T07:59:02.442Z,11.30
2018-03-27T07:59:51.536Z,8.18
2018-03-27T08:00:40.677Z,8.63
2018-03-27T08:01:29.773Z,9.35
2018-03-27T08:02:18.850Z,9.38
2018-03-27T08:03:07.948Z,8.48
2018-03-27T08:03:57.093Z,8.77
2018-03-27T08:04:46.172Z,7.68
2018-03-27T08:05:35.256Z,9.20
2018-03-27T08:06:24.353Z,10.45
2018-03-27T08:07:13.439Z,9.15
2018-03-27T08:08:02.528Z,9.50
2018-03-27T08:08:51.626Z,8.40
2018-03-27T08:09:40.855Z,8.52
2018-03-27T08:10:29.961Z,9.65
2018-03-27T08:11:19.094Z,12.07
2018-03-27T08:12:08.173Z,21.20
2018-03-27T08:12:57.285Z,21.70
2018-03-27T08:13:46.375Z,22.15
2018-03-27T08:14:35.501Z,21.20
2018-03-27T08:15:24.640Z,21.25
2018-03-27T08:16:13.754Z,17.98
2018-03-27T08:17:02.872Z,16.40
2018-03-27T08:17:51.978Z,12.90
2018-03-27T08:18:41.091Z,12.48
2018-03-27T08:19:30.194Z,11.70
2018-03-27T08:20:19.834Z,12.50
2018-03-27T08:21:09.018Z,7.82
2018-03-27T08:21:58.183Z,7.95
2018-03-27T08:22:47.278Z,9.30
2018-03-27T08:23:36.381Z,9.18
2018-03-27T08:24:25.501Z,8.18
2018-03-27T08:25:14.618Z,11.73
2018-03-27T08:26:03.737Z,15.15
2018-03-27T08:26:52.949Z,8.55
2018-03-27T08:27:42.035Z,12.35
2018-03-27T08:28:31.166Z,22.75
2018-03-27T08:29:20.272Z,16.25
2018-03-27T08:30:09.413Z,12.75
2018-03-27T08:30:59.194Z,12.18
2018-03-27T08:31:48.323Z,16.25
2018-03-27T08:32:37.510Z,9.43
2018-03-27T08:33:26.608Z,17.27
2018-03-27T08:34:15.758Z,15.55
2018-03-27T08:35:04.856Z,10.13
2018-03-27T08:35:53.973Z,18.27
2018-03-27T08:36:43.112Z,20.70
2018-03-27T08:37:32.214Z,13.85
2018-03-27T08:38:21.327Z,15.18
2018-03-27T08:39:10.844Z,20.50
2018-03-27T08:39:59.929Z,15.57
2018-03-27T08:40:49.022Z,18.52
2018-03-27T08:41:38.103Z,16.37
2018-03-27T08:42:27.310Z,13.75
2018-03-27T08:43:16.410Z,16.12
2018-03-27T08:44:05.585Z,17.75
2018-03-27T08:44:55.406Z,31.30
2018-03-27T08:45:44.497Z,20.15
2018-03-27T08:46:33.661Z,18.00
2018-03-27T08:47:22.795Z,17.10
2018-03-27T08:48:11.983Z,17.42
2018-03-27T08:49:01.126Z,17.83
2018-03-27T08:49:50.242Z,17.65
2018-03-27T08:50:39.352Z,18.20
2018-03-27T08:51:28.495Z,18.25
2018-03-27T08:52:17.609Z,17.70
2018-03-27T08:53:06.733Z,19.08
2018-03-27T08:53:55.954Z,18.50
2018-03-27T08:54:45.043Z,19.02
2018-03-27T08:55:34.147Z,19.12
2018-03-27T08:56:23.252Z,20.70
2018-03-27T08:57:12.390Z,22.70
2018-03-27T08:58:01.501Z,24.65
2018-03-27T08:58:50.602Z,26.73
2018-03-27T08:59:39.743Z,25.05
2018-03-27T09:00:28.915Z,27.52
2018-03-27T09:01:18.046Z,30.73
2018-03-27T09:02:07.159Z,37.95
2018-03-27T09:02:56.303Z,40.33
2018-03-27T09:03:45.462Z,24.02
2018-03-27T09:04:34.614Z,22.98
2018-03-27T09:05:23.880Z,24.75
2018-03-27T09:06:12.951Z,23.75
2018-03-27T09:07:02.062Z,23.05
2018-03-27T09:07:51.186Z,20.95
2018-03-27T09:08:40.314Z,19.95
2018-03-27T09:09:29.551Z,19.40
2018-03-27T09:10:18.646Z,19.15
2018-03-27T09:11:07.795Z,18.10
2018-03-27T09:11:56.902Z,19.87
2018-03-27T09:12:46.011Z,19.65
2018-03-27T09:13:35.178Z,19.42
2018-03-27T09:14:24.288Z,19.77
2018-03-27T09:15:13.504Z,18.98
2018-03-27T09:16:02.609Z,19.75
2018-03-27T09:16:51.708Z,19.45
2018-03-27T09:17:40.885Z,15.82
2018-03-27T09:18:30.041Z,21.73
2018-03-27T09:19:19.354Z,20.80
2018-03-27T09:20:08.477Z,31.23
2018-03-27T09:20:57.700Z,22.75
2018-03-27T09:21:46.835Z,21.25
2018-03-27T09:22:35.975Z,23.75
2018-03-27T09:23:25.136Z,21.50
2018-03-27T09:24:14.247Z,19.40
2018-03-27T09:25:03.405Z,21.45
2018-03-27T09:25:52.538Z,28.23
2018-03-27T09:26:41.671Z,21.42
2018-03-27T09:27:30.860Z,20.65
2018-03-27T09:28:19.973Z,19.05
2018-03-27T09:29:09.114Z,19.60
2018-03-27T09:29:59.797Z,20.15
2018-03-27T09:30:48.914Z,18.50
2018-03-27T09:31:38.027Z,19.67
2018-03-27T09:32:27.148Z,15.45
2018-03-27T09:33:16.287Z,15.18
2018-03-27T09:34:05.440Z,15.70
2018-03-27T09:34:54.568Z,12.43
2018-03-27T09:35:43.751Z,13.07
2018-03-27T09:36:32.848Z,12.05
2018-03-27T09:37:22.074Z,12.80
2018-03-27T09:38:11.194Z,12.35
2018-03-27T09:39:00.285Z,12.27
2018-03-27T09:39:49.414Z,13.20
2018-03-27T09:40:38.535Z,12.75
2018-03-27T09:41:27.655Z,12.05
2018-03-27T09:42:17.459Z,11.07
2018-03-27T09:43:06.739Z,11.95
2018-03-27T09:43:55.866Z,12.25
2018-03-27T09:44:44.991Z,13.05
2018-03-27T09:45:34.144Z,13.13
2018-03-27T09:46:23.250Z,15.07
2018-03-27T09:47:12.347Z,15.98
2018-03-27T09:48:01.511Z,15.88
2018-03-27T09:48:50.880Z,15.57
2018-03-27T09:49:40.003Z,17.45
2018-03-27T09:50:29.153Z,19.15
2018-03-27T09:51:18.291Z,19.58
2018-03-27T09:52:07.378Z,21.50
2018-03-27T09:52:56.502Z,20.37
2018-03-27T09:53:45.599Z,21.90
2018-03-27T09:54:34.797Z,33.50
2018-03-27T09:55:23.938Z,24.92
2018-03-27T09:56:13.036Z,25.55
2018-03-27T09:57:02.149Z,21.87
2018-03-27T09:57:51.357Z,29.50
2018-03-27T09:58:40.510Z,25.35
2018-03-27T09:59:29.654Z,20.27
2018-03-27T10:00:24.548Z,18.92
2018-03-27T10:01:13.757Z,26.27
2018-03-27T10:02:02.947Z,25.42
2018-03-27T10:02:52.066Z,21.35
2018-03-27T10:03:41.198Z,15.80
2018-03-27T10:04:31.150Z,9.60
2018-03-27T10:05:20.258Z,7.05
2018-03-27T10:06:09.458Z,6.47
2018-03-27T10:06:58.553Z,5.90
2018-03-27T10:07:47.634Z,5.95
2018-03-27T10:08:36.719Z,4.12
2018-03-27T10:09:25.808Z,6.55
2018-03-27T10:10:14.907Z,6.22
2018-03-27T10:11:04.091Z,6.12
2018-03-27T10:11:53.219Z,5.97
2018-03-27T10:12:42.317Z,8.73
2018-03-27T10:13:31.409Z,6.40
2018-03-27T10:14:20.530Z,8.68
2018-03-27T10:15:09.643Z,18.87
2018-03-27T10:15:58.738Z,26.58
2018-03-27T10:16:47.878Z,20.35
2018-03-27T10:17:37.084Z,12.05
2018-03-27T10:18:26.373Z,17.15
2018-03-27T10:19:15.501Z,12.52
2018-03-27T10:20:04.610Z,11.43
2018-03-27T10:20:53.786Z,12.05
2018-03-27T10:21:42.899Z,29.65
2018-03-27T10:22:32.012Z,26.92
2018-03-27T10:23:21.222Z,13.57
2018-03-27T10:24:10.344Z,18.85
2018-03-27T10:24:59.466Z,12.65
2018-03-27T10:25:49.167Z,10.40
2018-03-27T10:26:38.293Z,8.70
2018-03-27T10:27:27.468Z,9.32
2018-03-27T10:28:16.574Z,11.82
2018-03-27T10:29:05.796Z,12.27
2018-03-27T10:29:54.952Z,8.07
2018-03-27T10:30:44.895Z,8.50
2018-03-27T10:31:34.006Z,8.18
2018-03-27T10:32:23.100Z,9.00
2018-03-27T10:33:12.294Z,9.15
2018-03-27T10:34:01.410Z,9.00
2018-03-27T10:34:50.626Z,9.50
2018-03-27T10:35:39.842Z,11.02
2018-03-27T10:36:28.931Z,9.23
2018-03-27T10:37:18.061Z,13.45
2018-03-27T10:38:07.146Z,17.27
2018-03-27T10:38:56.272Z,12.88
2018-03-27T10:39:45.401Z,17.87
2018-03-27T10:40:34.502Z,14.43
2018-03-27T10:41:23.657Z,17.15
2018-03-27T10:42:12.753Z,25.48
2018-03-27T10:43:01.853Z,21.05
2018-03-27T10:43:51.006Z,13.52
2018-03-27T10:44:40.128Z,18.20
2018-03-27T10:45:29.248Z,17.95
2018-03-27T10:46:18.380Z,15.65
2018-03-27T10:47:07.481Z,11.32
2018-03-27T10:47:56.633Z,11.35
2018-03-27T10:48:45.723Z,12.07
2018-03-27T10:49:34.864Z,11.90
2018-03-27T10:50:23.953Z,9.60
2018-03-27T10:51:13.059Z,8.38
2018-03-27T10:52:02.255Z,6.78
2018-03-27T10:52:51.345Z,5.97
2018-03-27T10:53:40.438Z,10.30
2018-03-27T10:54:29.525Z,4.28
2018-03-27T10:55:18.615Z,6.00
2018-03-27T10:56:07.724Z,17.25
2018-03-27T10:56:56.822Z,14.25
2018-03-27T10:57:46.032Z,12.57
2018-03-27T10:58:35.127Z,17.92
2018-03-27T10:59:24.245Z,14.05
2018-03-27T11:00:13.877Z,18.15
2018-03-27T11:01:03.052Z,11.52
2018-03-27T11:01:52.153Z,19.98
2018-03-27T11:02:41.268Z,23.70
2018-03-27T11:03:30.376Z,16.98
2018-03-27T11:04:19.504Z,8.88
2018-03-27T11:05:08.662Z,6.18
2018-03-27T11:05:57.761Z,8.70
2018-03-27T11:06:46.923Z,6.62
2018-03-27T11:07:36.023Z,6.47
2018-03-27T11:08:25.141Z,7.40
2018-03-27T11:09:14.278Z,11.38
2018-03-27T11:10:03.513Z,18.33
2018-03-27T11:10:52.682Z,11.07
2018-03-27T11:11:41.806Z,6.87
2018-03-27T11:12:30.924Z,11.05
2018-03-27T11:13:20.051Z,10.98
2018-03-27T11:14:09.151Z,21.12
2018-03-27T11:14:58.408Z,9.10
2018-03-27T11:15:47.605Z,10.93
2018-03-27T11:16:36.706Z,18.12
2018-03-27T11:17:25.825Z,8.40
2018-03-27T11:18:14.935Z,13.35
2018-03-27T11:19:04.061Z,20.52
2018-03-27T11:19:53.201Z,18.55
2018-03-27T11:20:42.359Z,15.57
2018-03-27T11:21:31.491Z,18.60
2018-03-27T11:22:21.517Z,13.45
2018-03-27T11:23:10.633Z,19.12
2018-03-27T11:23:59.743Z,12.10
2018-03-27T11:24:49.532Z,8.35
2018-03-27T11:25:38.638Z,9.50
2018-03-27T11:26:27.743Z,11.52
2018-03-27T11:27:16.862Z,10.82
2018-03-27T11:28:06.008Z,11.45
2018-03-27T11:28:55.108Z,12.63
2018-03-27T11:29:44.209Z,14.35
2018-03-27T11:30:33.396Z,10.23
2018-03-27T11:31:22.527Z,10.68
2018-03-27T11:32:11.677Z,18.37
2018-03-27T11:33:00.799Z,18.17
2018-03-27T11:33:50.006Z,14.93
2018-03-27T11:34:39.117Z,14.90
2018-03-27T11:35:28.226Z,11.18
2018-03-27T11:36:17.364Z,53.22
2018-03-27T11:37:06.491Z,32.20
2018-03-27T11:37:55.630Z,13.70
2018-03-27T11:38:44.743Z,11.88
2018-03-27T11:39:33.842Z,17.73
2018-03-27T11:40:22.948Z,21.50
2018-03-27T11:41:12.048Z,24.10
2018-03-27T11:42:01.231Z,28.95
2018-03-27T11:42:50.447Z,15.13
2018-03-27T11:43:39.550Z,18.23
2018-03-27T11:44:28.663Z,19.85
2018-03-27T11:45:17.787Z,25.27
2018-03-27T11:46:06.902Z,22.58
2018-03-27T11:46:56.031Z,17.55
2018-03-27T11:47:45.138Z,16.58
2018-03-27T11:48:34.328Z,14.65
2018-03-27T11:49:23.428Z,17.35
2018-03-27T11:50:12.582Z,21.42
2018-03-27T11:51:01.770Z,19.15
2018-03-27T17:02:04.389Z,48.80
2018-03-27T17:02:53.543Z,42.58
2018-03-27T17:03:42.693Z,160.00
2018-03-27T17:04:31.766Z,102.05
2018-03-27T17:05:20.831Z,110.60
2018-03-27T17:06:09.903Z,117.65
2018-03-27T17:06:58.960Z,45.40
2018-03-27T17:07:48.135Z,35.75
2018-03-27T17:08:37.192Z,41.85
2018-03-27T17:09:26.236Z,34.65
2018-03-27T17:10:15.286Z,33.78
2018-03-27T17:11:04.350Z,36.20
2018-03-27T17:11:53.453Z,52.88
2018-03-27T17:12:42.510Z,106.82
2018-03-27T17:13:34.544Z,82.72
2018-03-27T17:14:23.849Z,95.35
2018-03-27T17:15:12.900Z,83.75
2018-03-27T17:16:01.990Z,89.65
2018-03-27T17:16:51.067Z,62.42
2018-03-27T17:17:40.165Z,30.77
2018-03-27T17:18:29.213Z,34.20
2018-03-27T17:19:18.374Z,37.08
2018-03-27T17:20:07.416Z,34.10
2018-03-27T17:20:56.475Z,31.35
2018-03-27T17:21:45.546Z,45.53
2018-03-27T17:22:34.605Z,38.25
2018-03-27T17:23:23.674Z,62.22
2018-03-27T17:24:12.729Z,46.70
2018-03-27T17:25:02.059Z,38.88
2018-03-27T17:25:51.185Z,27.75
2018-03-27T17:26:40.245Z,64.50
2018-03-27T17:27:29.338Z,65.72
2018-03-27T17:28:18.433Z,75.80
2018-03-27T17:29:07.486Z,37.72
2018-03-27T17:29:56.605Z,42.38
2018-03-27T17:30:45.828Z,32.88
2018-03-27T17:31:35.181Z,36.88
2018-03-27T17:32:24.234Z,37.83
2018-03-27T17:33:13.308Z,55.33
2018-03-27T17:34:02.439Z,49.38
2018-03-27T17:34:51.484Z,40.45
2018-03-27T17:35:40.535Z,36.13
2018-03-27T17:36:29.588Z,30.83
2018-03-27T17:37:18.635Z,33.28
2018-03-27T17:38:07.701Z,46.65
2018-03-27T17:38:56.806Z,49.92
2018-03-27T17:39:46.017Z,53.97
2018-03-27T17:40:35.098Z,67.80
2018-03-27T17:41:24.159Z,80.25
2018-03-27T17:42:13.257Z,98.05
2018-03-27T17:43:02.326Z,85.18
2018-03-27T17:43:51.425Z,87.35
2018-03-27T17:44:40.511Z,77.82
2018-03-27T17:45:29.694Z,78.72
2018-03-27T17:46:18.753Z,77.40
2018-03-27T17:47:07.869Z,77.57
2018-03-27T17:47:57.625Z,77.45
2018-03-27T17:48:46.680Z,74.95
2018-03-27T17:49:35.731Z,71.50
2018-03-27T17:50:24.785Z,61.15
2018-03-27T17:51:13.835Z,58.75
2018-03-27T17:52:02.934Z,59.92
2018-03-27T17:52:51.999Z,59.28
2018-03-27T17:53:41.190Z,57.70
2018-03-27T17:54:30.245Z,70.15
2018-03-27T17:55:19.308Z,73.87
2018-03-27T17:56:08.369Z,86.03
2018-03-27T17:56:57.440Z,92.68
2018-03-27T17:57:46.592Z,105.15
2018-03-27T17:58:35.797Z,75.15
2018-03-27T17:59:24.856Z,62.83
2018-03-27T18:00:15.028Z,58.58
2018-03-27T18:01:04.335Z,77.90
2018-03-27T18:01:53.430Z,78.78
2018-03-27T18:02:42.515Z,106.70
2018-03-27T18:03:31.584Z,80.30
2018-03-27T18:04:20.773Z,86.37
2018-03-27T18:05:09.829Z,79.80
2018-03-27T18:05:58.876Z,79.68
2018-03-27T18:06:47.931Z,68.80
2018-03-27T18:07:36.990Z,69.70
2018-03-27T18:08:26.056Z,81.03
2018-03-27T18:09:15.111Z,56.97
2018-03-27T18:10:04.234Z,51.25
2018-03-27T18:10:53.292Z,42.42
2018-03-27T18:11:42.340Z,47.62
2018-03-27T18:12:31.401Z,51.08
2018-03-27T18:13:20.490Z,45.53
2018-03-27T18:14:09.546Z,41.17
2018-03-27T18:14:58.584Z,38.55
2018-03-27T18:15:47.733Z,39.63
2018-03-27T18:16:36.787Z,42.72
2018-03-27T18:17:25.863Z,45.05
2018-03-27T18:18:14.912Z,40.80
2018-03-27T18:19:03.969Z,63.35
2018-03-27T18:19:53.036Z,96.90
2018-03-27T18:20:42.102Z,139.00
2018-03-27T18:21:31.208Z,85.15
2018-03-27T18:22:20.259Z,69.07
2018-03-27T18:23:09.334Z,77.20
2018-03-27T18:23:58.408Z,82.20
2018-03-27T18:24:47.502Z,64.87
2018-03-27T18:25:36.568Z,64.03
2018-03-27T18:26:26.289Z,50.53
2018-03-27T18:27:15.582Z,41.75
2018-03-27T18:28:04.645Z,42.72
2018-03-27T18:28:53.696Z,38.97
2018-03-27T18:29:42.741Z,39.85
2018-03-27T18:30:31.788Z,37.88
2018-03-27T18:31:20.837Z,35.65
2018-03-27T18:32:10.140Z,33.67